sensor_id;sensor_type;location;lat;lon;timestamp;pressure;altitude;pressure_sealevel;temperature;humidity
23635;BME280;11994;51.038;16.974;2023-12-22T00:01:39;97162.90;;;6.70;78.28
23635;BME280;11994;51.038;16.974;2023-12-22T00:04:04;97162.80;;;6.72;78.31
23635;BME280;11994;51.038;16.974;2023-12-22T00:06:31;97161.88;;;6.73;78.22
23635;BME280;11994;51.038;16.974;2023-12-22T00:08:57;97170.52;;;6.74;77.87
23635;BME280;11994;51.038;16.974;2023-12-22T00:11:22;97170.65;;;6.74;78.39
23635;BME280;11994;51.038;16.974;2023-12-22T00:13:47;97171.55;;;6.74;78.27
23635;BME280;11994;51.038;16.974;2023-12-22T00:16:12;97161.14;;;6.74;78.17
23635;BME280;11994;51.038;16.974;2023-12-22T00:18:38;97154.11;;;6.72;77.81
23635;BME280;11994;51.038;16.974;2023-12-22T00:21:03;97161.70;;;6.70;77.78
23635;BME280;11994;51.038;16.974;2023-12-22T00:23:28;97158.98;;;6.66;77.62
23635;BME280;11994;51.038;16.974;2023-12-22T00:25:54;97158.27;;;6.63;77.36
23635;BME280;11994;51.038;16.974;2023-12-22T00:28:19;97159.29;;;6.61;77.37
23635;BME280;11994;51.038;16.974;2023-12-22T00:30:44;97158.91;;;6.58;77.53
23635;BME280;11994;51.038;16.974;2023-12-22T00:33:09;97156.27;;;6.56;77.50
23635;BME280;11994;51.038;16.974;2023-12-22T00:35:35;97157.32;;;6.53;77.46
23635;BME280;11994;51.038;16.974;2023-12-22T00:38:01;97161.48;;;6.53;77.78
23635;BME280;11994;51.038;16.974;2023-12-22T00:40:26;97162.16;;;6.53;77.75
23635;BME280;11994;51.038;16.974;2023-12-22T00:42:51;97179.45;;;6.51;76.67
23635;BME280;11994;51.038;16.974;2023-12-22T00:45:16;97184.45;;;6.49;76.72
23635;BME280;11994;51.038;16.974;2023-12-22T00:47:42;97192.79;;;6.40;76.90
23635;BME280;11994;51.038;16.974;2023-12-22T00:50:07;97203.98;;;6.26;77.31
23635;BME280;11994;51.038;16.974;2023-12-22T00:52:33;97190.08;;;6.07;78.77
23635;BME280;11994;51.038;16.974;2023-12-22T00:54:58;97192.75;;;5.84;79.69
23635;BME280;11994;51.038;16.974;2023-12-22T00:57:24;97190.72;;;5.66;80.32
23635;BME280;11994;51.038;16.974;2023-12-22T00:59:49;97188.64;;;5.60;80.45
23635;BME280;11994;51.038;16.974;2023-12-22T01:02:15;97191.00;;;5.58;80.68
23635;BME280;11994;51.038;16.974;2023-12-22T01:04:40;97192.92;;;5.58;80.79
23635;BME280;11994;51.038;16.974;2023-12-22T01:07:09;97194.98;;;5.58;80.73
23635;BME280;11994;51.038;16.974;2023-12-22T01:09:34;97197.21;;;5.58;80.89
23635;BME280;11994;51.038;16.974;2023-12-22T01:12:00;97199.19;;;5.60;80.50
23635;BME280;11994;51.038;16.974;2023-12-22T01:14:28;97193.92;;;5.61;80.70
23635;BME280;11994;51.038;16.974;2023-12-22T01:16:53;97203.55;;;5.63;80.35
23635;BME280;11994;51.038;16.974;2023-12-22T01:19:18;97210.59;;;5.68;79.57
23635;BME280;11994;51.038;16.974;2023-12-22T01:21:44;97203.94;;;5.75;78.54
23635;BME280;11994;51.038;16.974;2023-12-22T01:24:09;97197.36;;;5.85;77.54
23635;BME280;11994;51.038;16.974;2023-12-22T01:26:34;97201.67;;;5.95;76.83
23635;BME280;11994;51.038;16.974;2023-12-22T01:28:59;97196.98;;;6.05;76.01
23635;BME280;11994;51.038;16.974;2023-12-22T01:31:25;97217.48;;;6.10;75.48
23635;BME280;11994;51.038;16.974;2023-12-22T01:33:50;97209.26;;;6.12;75.45
23635;BME280;11994;51.038;16.974;2023-12-22T01:36:15;97212.64;;;6.10;75.11
23635;BME280;11994;51.038;16.974;2023-12-22T01:38:40;97216.42;;;6.08;74.76
23635;BME280;11994;51.038;16.974;2023-12-22T01:41:06;97212.44;;;6.05;74.35
23635;BME280;11994;51.038;16.974;2023-12-22T01:43:31;97217.23;;;6.02;73.76
23635;BME280;11994;51.038;16.974;2023-12-22T01:45:57;97214.60;;;6.00;73.53
23635;BME280;11994;51.038;16.974;2023-12-22T01:48:23;97204.84;;;5.97;73.79
23635;BME280;11994;51.038;16.974;2023-12-22T01:50:50;97205.35;;;5.94;73.75
23635;BME280;11994;51.038;16.974;2023-12-22T01:53:17;97210.39;;;5.91;73.91
23635;BME280;11994;51.038;16.974;2023-12-22T01:55:42;97209.08;;;5.90;73.35
23635;BME280;11994;51.038;16.974;2023-12-22T01:58:08;97211.11;;;5.90;73.59
23635;BME280;11994;51.038;16.974;2023-12-22T02:00:33;97209.48;;;5.89;73.73
23635;BME280;11994;51.038;16.974;2023-12-22T02:02:58;97214.77;;;5.87;73.69
23635;BME280;11994;51.038;16.974;2023-12-22T02:05:24;97214.33;;;5.86;73.60
23635;BME280;11994;51.038;16.974;2023-12-22T02:07:49;97223.04;;;5.85;73.52
23635;BME280;11994;51.038;16.974;2023-12-22T02:10:15;97234.53;;;5.84;73.39
23635;BME280;11994;51.038;16.974;2023-12-22T02:12:40;97236.06;;;5.81;73.67
23635;BME280;11994;51.038;16.974;2023-12-22T02:15:05;97238.53;;;5.73;74.05
23635;BME280;11994;51.038;16.974;2023-12-22T02:20:02;97244.89;;;5.51;75.94
23635;BME280;11994;51.038;16.974;2023-12-22T02:22:29;97250.77;;;5.42;76.83
23635;BME280;11994;51.038;16.974;2023-12-22T02:24:54;97245.04;;;5.32;77.76
23635;BME280;11994;51.038;16.974;2023-12-22T02:27:22;97244.07;;;5.23;78.33
23635;BME280;11994;51.038;16.974;2023-12-22T02:30:38;97247.61;;;5.19;78.64
23635;BME280;11994;51.038;16.974;2023-12-22T02:32:38;97261.57;;;5.17;79.66
23635;BME280;11994;51.038;16.974;2023-12-22T02:35:07;97260.33;;;5.10;80.36
23635;BME280;11994;51.038;16.974;2023-12-22T02:37:34;97294.05;;;4.87;81.26
23635;BME280;11994;51.038;16.974;2023-12-22T02:40:00;97297.85;;;4.51;81.29
23635;BME280;11994;51.038;16.974;2023-12-22T02:42:26;97294.14;;;4.11;81.49
23635;BME280;11994;51.038;16.974;2023-12-22T02:44:55;97267.32;;;3.74;81.91
23635;BME280;11994;51.038;16.974;2023-12-22T02:47:21;97265.38;;;3.48;82.14
23635;BME280;11994;51.038;16.974;2023-12-22T02:49:46;97274.45;;;3.34;83.16
23635;BME280;11994;51.038;16.974;2023-12-22T02:52:12;97284.21;;;3.24;83.69
23635;BME280;11994;51.038;16.974;2023-12-22T02:54:37;97278.02;;;3.19;83.72
23635;BME280;11994;51.038;16.974;2023-12-22T02:57:05;97280.55;;;3.21;83.91
23635;BME280;11994;51.038;16.974;2023-12-22T02:59:30;97273.69;;;3.27;84.21
23635;BME280;11994;51.038;16.974;2023-12-22T03:01:55;97281.55;;;3.37;83.79
23635;BME280;11994;51.038;16.974;2023-12-22T03:04:20;97283.83;;;3.48;83.96
23635;BME280;11994;51.038;16.974;2023-12-22T03:06:46;97296.30;;;3.55;83.73
23635;BME280;11994;51.038;16.974;2023-12-22T03:09:11;97282.48;;;3.59;83.62
23635;BME280;11994;51.038;16.974;2023-12-22T03:11:36;97281.18;;;3.57;83.79
23635;BME280;11994;51.038;16.974;2023-12-22T03:14:01;97281.30;;;3.51;84.49
23635;BME280;11994;51.038;16.974;2023-12-22T03:16:27;97284.02;;;3.48;84.61
23635;BME280;11994;51.038;16.974;2023-12-22T03:18:52;97291.27;;;3.48;84.44
23635;BME280;11994;51.038;16.974;2023-12-22T03:21:18;97293.54;;;3.47;84.82
23635;BME280;11994;51.038;16.974;2023-12-22T03:23:46;97290.99;;;3.43;85.05
23635;BME280;11994;51.038;16.974;2023-12-22T03:26:11;97295.53;;;3.37;85.07
23635;BME280;11994;51.038;16.974;2023-12-22T03:28:37;97294.85;;;3.33;85.73
23635;BME280;11994;51.038;16.974;2023-12-22T03:31:03;97298.17;;;3.28;86.28
23635;BME280;11994;51.038;16.974;2023-12-22T03:33:28;97306.55;;;3.26;86.31
23635;BME280;11994;51.038;16.974;2023-12-22T03:35:53;97300.83;;;3.27;86.35
23635;BME280;11994;51.038;16.974;2023-12-22T03:38:19;97298.96;;;3.30;86.17
23635;BME280;11994;51.038;16.974;2023-12-22T03:40:44;97296.10;;;3.32;85.97
23635;BME280;11994;51.038;16.974;2023-12-22T03:43:10;97295.48;;;3.35;85.89
23635;BME280;11994;51.038;16.974;2023-12-22T03:45:35;97292.09;;;3.37;85.76
23635;BME280;11994;51.038;16.974;2023-12-22T03:48:00;97291.04;;;3.37;85.91
23635;BME280;11994;51.038;16.974;2023-12-22T03:50:25;97297.70;;;3.39;85.38
23635;BME280;11994;51.038;16.974;2023-12-22T03:52:51;97291.73;;;3.42;85.30
23635;BME280;11994;51.038;16.974;2023-12-22T03:55:16;97287.42;;;3.45;85.12
23635;BME280;11994;51.038;16.974;2023-12-22T03:57:42;97284.91;;;3.47;85.03
23635;BME280;11994;51.038;16.974;2023-12-22T04:00:08;97291.00;;;3.54;84.79
23635;BME280;11994;51.038;16.974;2023-12-22T04:02:33;97282.91;;;3.61;84.52
23635;BME280;11994;51.038;16.974;2023-12-22T04:04:59;97280.96;;;3.71;84.33
23635;BME280;11994;51.038;16.974;2023-12-22T04:07:24;97278.65;;;3.80;84.00
23635;BME280;11994;51.038;16.974;2023-12-22T04:09:49;97275.86;;;3.88;83.58
23635;BME280;11994;51.038;16.974;2023-12-22T04:12:14;97273.88;;;3.94;83.20
23635;BME280;11994;51.038;16.974;2023-12-22T04:14:39;97270.86;;;3.99;82.72
23635;BME280;11994;51.038;16.974;2023-12-22T04:17:05;97261.64;;;4.04;82.52
23635;BME280;11994;51.038;16.974;2023-12-22T04:19:30;97254.72;;;4.08;82.02
23635;BME280;11994;51.038;16.974;2023-12-22T04:21:55;97261.05;;;4.13;81.64
23635;BME280;11994;51.038;16.974;2023-12-22T04:24:21;97255.42;;;4.19;81.01
23635;BME280;11994;51.038;16.974;2023-12-22T04:26:46;97257.61;;;4.24;80.53
23635;BME280;11994;51.038;16.974;2023-12-22T04:29:11;97266.41;;;4.31;80.28
23635;BME280;11994;51.038;16.974;2023-12-22T04:31:36;97268.50;;;4.39;79.62
23635;BME280;11994;51.038;16.974;2023-12-22T04:34:02;97277.77;;;4.47;79.31
23635;BME280;11994;51.038;16.974;2023-12-22T04:36:27;97273.36;;;4.53;78.98
23635;BME280;11994;51.038;16.974;2023-12-22T04:38:52;97270.23;;;4.57;78.48
23635;BME280;11994;51.038;16.974;2023-12-22T04:41:17;97271.14;;;4.59;78.15
23635;BME280;11994;51.038;16.974;2023-12-22T04:43:43;97271.66;;;4.59;77.82
23635;BME280;11994;51.038;16.974;2023-12-22T04:46:08;97266.55;;;4.61;76.82
23635;BME280;11994;51.038;16.974;2023-12-22T04:48:33;97257.20;;;4.65;76.82
23635;BME280;11994;51.038;16.974;2023-12-22T04:50:59;97255.42;;;4.69;76.32
23635;BME280;11994;51.038;16.974;2023-12-22T04:53:24;97256.34;;;4.72;76.13
23635;BME280;11994;51.038;16.974;2023-12-22T04:55:49;97258.69;;;4.70;75.58
23635;BME280;11994;51.038;16.974;2023-12-22T04:58:14;97258.39;;;4.69;76.05
23635;BME280;11994;51.038;16.974;2023-12-22T05:00:40;97259.94;;;4.69;75.49
23635;BME280;11994;51.038;16.974;2023-12-22T05:03:05;97261.06;;;4.71;75.24
23635;BME280;11994;51.038;16.974;2023-12-22T05:05:30;97254.35;;;4.74;75.24
23635;BME280;11994;51.038;16.974;2023-12-22T05:07:55;97256.67;;;4.76;75.02
23635;BME280;11994;51.038;16.974;2023-12-22T05:10:21;97256.67;;;4.76;75.38
23635;BME280;11994;51.038;16.974;2023-12-22T05:12:46;97259.40;;;4.73;75.16
23635;BME280;11994;51.038;16.974;2023-12-22T05:15:11;97255.28;;;4.72;75.16
23635;BME280;11994;51.038;16.974;2023-12-22T05:17:36;97270.13;;;4.73;75.31
23635;BME280;11994;51.038;16.974;2023-12-22T05:20:02;97264.20;;;4.71;75.31
23635;BME280;11994;51.038;16.974;2023-12-22T05:22:27;97259.94;;;4.69;75.50
23635;BME280;11994;51.038;16.974;2023-12-22T05:24:55;97259.88;;;4.67;75.70
23635;BME280;11994;51.038;16.974;2023-12-22T05:27:20;97258.73;;;4.65;75.61
23635;BME280;11994;51.038;16.974;2023-12-22T05:29:45;97258.02;;;4.66;75.75
23635;BME280;11994;51.038;16.974;2023-12-22T05:32:11;97258.08;;;4.69;75.83
23635;BME280;11994;51.038;16.974;2023-12-22T05:34:37;97255.10;;;4.69;75.73
23635;BME280;11994;51.038;16.974;2023-12-22T05:37:02;97257.73;;;4.69;75.47
23635;BME280;11994;51.038;16.974;2023-12-22T05:39:27;97262.95;;;4.68;75.44
23635;BME280;11994;51.038;16.974;2023-12-22T05:41:52;97263.42;;;4.69;75.60
23635;BME280;11994;51.038;16.974;2023-12-22T05:44:18;97266.57;;;4.68;75.59
23635;BME280;11994;51.038;16.974;2023-12-22T05:46:43;97263.60;;;4.69;75.90
23635;BME280;11994;51.038;16.974;2023-12-22T05:49:08;97259.76;;;4.69;75.89
23635;BME280;11994;51.038;16.974;2023-12-22T05:51:37;97257.17;;;4.69;75.62
23635;BME280;11994;51.038;16.974;2023-12-22T05:54:03;97268.89;;;4.74;75.38
23635;BME280;11994;51.038;16.974;2023-12-22T05:56:28;97273.42;;;4.77;75.26
23635;BME280;11994;51.038;16.974;2023-12-22T05:58:54;97272.02;;;4.77;74.71
23635;BME280;11994;51.038;16.974;2023-12-22T06:01:19;97288.27;;;4.78;74.57
23635;BME280;11994;51.038;16.974;2023-12-22T06:03:45;97285.05;;;4.80;74.38
23635;BME280;11994;51.038;16.974;2023-12-22T06:06:11;97286.98;;;4.86;74.00
23635;BME280;11994;51.038;16.974;2023-12-22T06:08:37;97288.63;;;4.91;74.46
23635;BME280;11994;51.038;16.974;2023-12-22T06:11:02;97288.02;;;4.93;74.47
23635;BME280;11994;51.038;16.974;2023-12-22T06:13:28;97288.67;;;4.90;74.63
23635;BME280;11994;51.038;16.974;2023-12-22T06:15:53;97290.80;;;4.86;74.87
23635;BME280;11994;51.038;16.974;2023-12-22T06:18:18;97289.88;;;4.80;75.25
23635;BME280;11994;51.038;16.974;2023-12-22T06:20:44;97288.20;;;4.75;75.33
23635;BME280;11994;51.038;16.974;2023-12-22T06:23:09;97293.58;;;4.71;75.61
23635;BME280;11994;51.038;16.974;2023-12-22T06:25:34;97301.67;;;4.69;75.54
23635;BME280;11994;51.038;16.974;2023-12-22T06:27:59;97305.02;;;4.64;75.61
23635;BME280;11994;51.038;16.974;2023-12-22T06:30:25;97302.60;;;4.60;75.98
23635;BME280;11994;51.038;16.974;2023-12-22T06:32:50;97301.10;;;4.59;76.05
23635;BME280;11994;51.038;16.974;2023-12-22T06:35:15;97303.01;;;4.55;76.10
23635;BME280;11994;51.038;16.974;2023-12-22T06:37:40;97304.79;;;4.54;76.33
23635;BME280;11994;51.038;16.974;2023-12-22T06:40:06;97307.83;;;4.55;76.40
23635;BME280;11994;51.038;16.974;2023-12-22T06:42:31;97310.44;;;4.59;76.62
23635;BME280;11994;51.038;16.974;2023-12-22T06:44:56;97306.92;;;4.60;76.76
23635;BME280;11994;51.038;16.974;2023-12-22T06:47:22;97316.90;;;4.58;76.98
23635;BME280;11994;51.038;16.974;2023-12-22T06:49:47;97322.19;;;4.55;77.17
23635;BME280;11994;51.038;16.974;2023-12-22T06:52:12;97326.48;;;4.53;77.25
23635;BME280;11994;51.038;16.974;2023-12-22T06:54:37;97326.09;;;4.50;77.47
23635;BME280;11994;51.038;16.974;2023-12-22T06:57:03;97330.54;;;4.47;77.42
23635;BME280;11994;51.038;16.974;2023-12-22T06:59:28;97333.61;;;4.45;77.65
23635;BME280;11994;51.038;16.974;2023-12-22T07:01:53;97335.17;;;4.41;77.78
23635;BME280;11994;51.038;16.974;2023-12-22T07:04:20;97338.70;;;4.39;77.82
23635;BME280;11994;51.038;16.974;2023-12-22T07:06:45;97335.16;;;4.41;77.80
23635;BME280;11994;51.038;16.974;2023-12-22T07:11:42;97340.07;;;4.43;77.88
23635;BME280;11994;51.038;16.974;2023-12-22T07:14:07;97333.83;;;4.44;78.07
23635;BME280;11994;51.038;16.974;2023-12-22T07:16:33;97342.81;;;4.44;78.13
23635;BME280;11994;51.038;16.974;2023-12-22T07:18:58;97335.58;;;4.43;78.15
23635;BME280;11994;51.038;16.974;2023-12-22T07:21:23;97343.04;;;4.42;78.05
23635;BME280;11994;51.038;16.974;2023-12-22T07:23:49;97360.47;;;4.44;78.41
23635;BME280;11994;51.038;16.974;2023-12-22T07:26:14;97359.08;;;4.44;78.27
23635;BME280;11994;51.038;16.974;2023-12-22T07:28:39;97363.36;;;4.45;78.39
23635;BME280;11994;51.038;16.974;2023-12-22T07:31:05;97365.08;;;4.45;78.72
23635;BME280;11994;51.038;16.974;2023-12-22T07:33:30;97372.73;;;4.48;78.75
23635;BME280;11994;51.038;16.974;2023-12-22T07:35:55;97373.22;;;4.48;79.08
23635;BME280;11994;51.038;16.974;2023-12-22T07:38:21;97378.65;;;4.47;79.55
23635;BME280;11994;51.038;16.974;2023-12-22T07:40:46;97377.04;;;4.45;80.10
23635;BME280;11994;51.038;16.974;2023-12-22T07:43:12;97371.61;;;4.42;80.15
23635;BME280;11994;51.038;16.974;2023-12-22T07:45:38;97372.21;;;4.40;80.39
23635;BME280;11994;51.038;16.974;2023-12-22T07:48:03;97374.38;;;4.38;80.68
23635;BME280;11994;51.038;16.974;2023-12-22T07:50:28;97373.34;;;4.38;80.87
23635;BME280;11994;51.038;16.974;2023-12-22T07:52:54;97365.21;;;4.38;80.93
23635;BME280;11994;51.038;16.974;2023-12-22T07:55:19;97365.98;;;4.40;80.87
23635;BME280;11994;51.038;16.974;2023-12-22T07:57:44;97363.08;;;4.43;81.03
23635;BME280;11994;51.038;16.974;2023-12-22T08:00:10;97361.48;;;4.47;81.06
23635;BME280;11994;51.038;16.974;2023-12-22T08:02:35;97359.99;;;4.50;80.93
23635;BME280;11994;51.038;16.974;2023-12-22T08:05:01;97354.49;;;4.53;81.00
23635;BME280;11994;51.038;16.974;2023-12-22T08:07:26;97355.80;;;4.54;80.83
23635;BME280;11994;51.038;16.974;2023-12-22T08:09:51;97358.29;;;4.57;80.80
23635;BME280;11994;51.038;16.974;2023-12-22T08:12:17;97364.80;;;4.58;80.89
23635;BME280;11994;51.038;16.974;2023-12-22T08:14:42;97374.34;;;4.58;80.76
23635;BME280;11994;51.038;16.974;2023-12-22T08:17:07;97369.86;;;4.57;80.66
23635;BME280;11994;51.038;16.974;2023-12-22T08:19:32;97369.52;;;4.57;80.63
23635;BME280;11994;51.038;16.974;2023-12-22T08:21:58;97377.99;;;4.61;80.63
23635;BME280;11994;51.038;16.974;2023-12-22T08:24:23;97383.13;;;4.66;80.40
23635;BME280;11994;51.038;16.974;2023-12-22T08:26:49;97385.57;;;4.69;79.94
23635;BME280;11994;51.038;16.974;2023-12-22T08:29:14;97375.31;;;4.70;79.74
23635;BME280;11994;51.038;16.974;2023-12-22T08:31:40;97374.45;;;4.70;79.37
23635;BME280;11994;51.038;16.974;2023-12-22T08:34:06;97374.75;;;4.71;79.29
23635;BME280;11994;51.038;16.974;2023-12-22T08:36:31;97377.93;;;4.74;79.17
23635;BME280;11994;51.038;16.974;2023-12-22T08:38:57;97381.32;;;4.79;78.91
23635;BME280;11994;51.038;16.974;2023-12-22T08:41:22;97385.34;;;4.89;78.93
23635;BME280;11994;51.038;16.974;2023-12-22T08:43:47;97382.23;;;5.00;79.05
23635;BME280;11994;51.038;16.974;2023-12-22T08:46:13;97383.48;;;5.06;78.31
23635;BME280;11994;51.038;16.974;2023-12-22T08:48:38;97377.47;;;5.05;77.56
23635;BME280;11994;51.038;16.974;2023-12-22T08:51:03;97378.83;;;5.02;77.60
23635;BME280;11994;51.038;16.974;2023-12-22T08:53:29;97386.54;;;5.00;77.20
23635;BME280;11994;51.038;16.974;2023-12-22T08:55:58;97391.41;;;4.96;76.82
23635;BME280;11994;51.038;16.974;2023-12-22T08:58:24;97389.70;;;4.88;77.53
23635;BME280;11994;51.038;16.974;2023-12-22T09:00:49;97416.32;;;4.75;77.90
23635;BME280;11994;51.038;16.974;2023-12-22T09:03:14;97437.98;;;4.51;78.88
23635;BME280;11994;51.038;16.974;2023-12-22T09:05:39;97441.69;;;4.14;80.19
23635;BME280;11994;51.038;16.974;2023-12-22T09:08:05;97393.94;;;3.75;81.30
23635;BME280;11994;51.038;16.974;2023-12-22T09:10:31;97376.69;;;3.50;81.72
23635;BME280;11994;51.038;16.974;2023-12-22T09:12:57;97380.10;;;3.47;82.24
23635;BME280;11994;51.038;16.974;2023-12-22T09:15:22;97386.79;;;3.44;83.37
23635;BME280;11994;51.038;16.974;2023-12-22T09:17:47;97392.68;;;3.39;83.65
23635;BME280;11994;51.038;16.974;2023-12-22T09:20:13;97402.09;;;3.42;84.40
23635;BME280;11994;51.038;16.974;2023-12-22T09:22:38;97396.35;;;3.46;84.53
23635;BME280;11994;51.038;16.974;2023-12-22T09:25:03;97401.13;;;3.52;84.60
23635;BME280;11994;51.038;16.974;2023-12-22T09:27:29;97405.77;;;3.56;84.76
23635;BME280;11994;51.038;16.974;2023-12-22T09:29:56;97403.63;;;3.58;84.70
23635;BME280;11994;51.038;16.974;2023-12-22T09:32:21;97408.04;;;3.64;84.90
23635;BME280;11994;51.038;16.974;2023-12-22T09:34:46;97405.33;;;3.75;84.65
23635;BME280;11994;51.038;16.974;2023-12-22T09:37:11;97396.36;;;3.87;84.49
23635;BME280;11994;51.038;16.974;2023-12-22T09:39:37;97388.15;;;3.97;84.45
23635;BME280;11994;51.038;16.974;2023-12-22T09:42:02;97386.15;;;4.07;84.36
23635;BME280;11994;51.038;16.974;2023-12-22T09:44:28;97381.48;;;4.15;84.33
23635;BME280;11994;51.038;16.974;2023-12-22T09:46:55;97370.20;;;4.20;84.01
23635;BME280;11994;51.038;16.974;2023-12-22T09:49:22;97376.39;;;4.20;84.23
23635;BME280;11994;51.038;16.974;2023-12-22T09:51:48;97375.35;;;4.21;84.02
23635;BME280;11994;51.038;16.974;2023-12-22T09:54:14;97374.27;;;4.25;84.23
23635;BME280;11994;51.038;16.974;2023-12-22T09:56:40;97372.27;;;4.32;84.06
23635;BME280;11994;51.038;16.974;2023-12-22T09:59:13;97372.17;;;4.37;83.91
23635;BME280;11994;51.038;16.974;2023-12-22T10:01:42;97368.77;;;4.44;83.76
23635;BME280;11994;51.038;16.974;2023-12-22T10:04:08;97366.34;;;4.51;83.61
23635;BME280;11994;51.038;16.974;2023-12-22T10:06:35;97359.86;;;4.60;83.21
23635;BME280;11994;51.038;16.974;2023-12-22T10:09:00;97363.03;;;4.70;82.81
23635;BME280;11994;51.038;16.974;2023-12-22T10:11:26;97362.91;;;4.80;82.30
23635;BME280;11994;51.038;16.974;2023-12-22T10:13:53;97366.70;;;4.88;81.53
23635;BME280;11994;51.038;16.974;2023-12-22T10:16:20;97359.63;;;4.95;81.12
23635;BME280;11994;51.038;16.974;2023-12-22T10:18:45;97344.26;;;5.01;80.21
23635;BME280;11994;51.038;16.974;2023-12-22T10:21:11;97340.55;;;5.06;79.36
23635;BME280;11994;51.038;16.974;2023-12-22T10:23:37;97351.29;;;5.09;78.95
23635;BME280;11994;51.038;16.974;2023-12-22T10:26:02;97357.84;;;5.14;78.49
23635;BME280;11994;51.038;16.974;2023-12-22T10:28:28;97356.98;;;5.17;78.18
23635;BME280;11994;51.038;16.974;2023-12-22T10:30:53;97358.13;;;5.18;78.15
23635;BME280;11994;51.038;16.974;2023-12-22T10:33:21;97348.98;;;5.18;78.02
23635;BME280;11994;51.038;16.974;2023-12-22T10:35:46;97350.40;;;5.20;77.07
23635;BME280;11994;51.038;16.974;2023-12-22T10:38:11;97339.45;;;5.25;77.05
23635;BME280;11994;51.038;16.974;2023-12-22T10:40:37;97344.52;;;5.27;76.39
23635;BME280;11994;51.038;16.974;2023-12-22T10:43:02;97361.05;;;5.29;75.87
23635;BME280;11994;51.038;16.974;2023-12-22T10:45:28;97383.27;;;5.32;75.14
23635;BME280;11994;51.038;16.974;2023-12-22T10:47:54;97384.80;;;5.32;74.78
23635;BME280;11994;51.038;16.974;2023-12-22T10:50:19;97385.45;;;5.33;74.08
23635;BME280;11994;51.038;16.974;2023-12-22T10:52:51;97387.26;;;5.32;74.08
23635;BME280;11994;51.038;16.974;2023-12-22T10:55:16;97388.87;;;5.31;74.20
23635;BME280;11994;51.038;16.974;2023-12-22T10:57:43;97393.85;;;5.32;73.81
23635;BME280;11994;51.038;16.974;2023-12-22T11:00:09;97387.67;;;5.34;73.53
23635;BME280;11994;51.038;16.974;2023-12-22T11:02:35;97387.62;;;5.35;73.16
23635;BME280;11994;51.038;16.974;2023-12-22T11:05:05;97400.34;;;5.37;72.98
23635;BME280;11994;51.038;16.974;2023-12-22T11:07:34;97401.52;;;5.41;73.89
23635;BME280;11994;51.038;16.974;2023-12-22T11:10:03;97404.25;;;5.49;74.55
23635;BME280;11994;51.038;16.974;2023-12-22T11:12:29;97397.18;;;5.48;74.09
23635;BME280;11994;51.038;16.974;2023-12-22T11:14:56;97400.48;;;5.38;74.37
23635;BME280;11994;51.038;16.974;2023-12-22T11:17:22;97400.20;;;5.29;75.10
23635;BME280;11994;51.038;16.974;2023-12-22T11:19:53;97405.92;;;5.26;74.90
23635;BME280;11994;51.038;16.974;2023-12-22T11:22:18;97411.91;;;5.24;74.66
23635;BME280;11994;51.038;16.974;2023-12-22T11:24:46;97419.27;;;5.22;74.32
23635;BME280;11994;51.038;16.974;2023-12-22T11:27:12;97410.05;;;5.19;74.36
23635;BME280;11994;51.038;16.974;2023-12-22T11:29:37;97413.96;;;5.17;74.53
23635;BME280;11994;51.038;16.974;2023-12-22T11:32:05;97408.37;;;5.15;74.14
23635;BME280;11994;51.038;16.974;2023-12-22T11:34:31;97414.29;;;5.14;74.25
23635;BME280;11994;51.038;16.974;2023-12-22T11:36:57;97412.36;;;5.14;73.04
23635;BME280;11994;51.038;16.974;2023-12-22T11:39:23;97415.36;;;5.17;73.04
23635;BME280;11994;51.038;16.974;2023-12-22T11:41:50;97412.09;;;5.20;72.72
23635;BME280;11994;51.038;16.974;2023-12-22T11:44:17;97418.05;;;5.22;72.54
23635;BME280;11994;51.038;16.974;2023-12-22T11:46:42;97416.45;;;5.23;72.20
23635;BME280;11994;51.038;16.974;2023-12-22T11:49:08;97420.36;;;5.25;71.88
23635;BME280;11994;51.038;16.974;2023-12-22T11:51:33;97421.63;;;5.27;71.17
23635;BME280;11994;51.038;16.974;2023-12-22T11:54:01;97423.52;;;5.31;70.99
23635;BME280;11994;51.038;16.974;2023-12-22T11:56:26;97416.48;;;5.33;71.14
23635;BME280;11994;51.038;16.974;2023-12-22T11:58:53;97421.06;;;5.35;70.73
23635;BME280;11994;51.038;16.974;2023-12-22T12:01:23;97410.24;;;5.36;68.85
23635;BME280;11994;51.038;16.974;2023-12-22T12:03:50;97407.89;;;5.35;68.87
23635;BME280;11994;51.038;16.974;2023-12-22T12:08:51;97407.20;;;5.31;67.81
23635;BME280;11994;51.038;16.974;2023-12-22T12:11:18;97408.09;;;5.31;68.26
23635;BME280;11994;51.038;16.974;2023-12-22T12:13:44;97418.55;;;5.30;67.68
23635;BME280;11994;51.038;16.974;2023-12-22T12:16:10;97411.88;;;5.28;67.94
23635;BME280;11994;51.038;16.974;2023-12-22T12:18:36;97418.81;;;5.28;67.96
23635;BME280;11994;51.038;16.974;2023-12-22T12:21:01;97415.50;;;5.28;68.36
23635;BME280;11994;51.038;16.974;2023-12-22T12:23:27;97413.38;;;5.29;68.45
23635;BME280;11994;51.038;16.974;2023-12-22T12:25:56;97422.73;;;5.29;67.42
23635;BME280;11994;51.038;16.974;2023-12-22T12:28:31;97418.84;;;5.31;67.87
23635;BME280;11994;51.038;16.974;2023-12-22T12:31:00;97414.23;;;5.33;67.81
23635;BME280;11994;51.038;16.974;2023-12-22T12:33:26;97428.08;;;5.33;67.22
23635;BME280;11994;51.038;16.974;2023-12-22T12:35:53;97422.30;;;5.31;66.87
23635;BME280;11994;51.038;16.974;2023-12-22T12:38:20;97422.28;;;5.31;67.37
23635;BME280;11994;51.038;16.974;2023-12-22T12:40:47;97424.79;;;5.33;67.40
23635;BME280;11994;51.038;16.974;2023-12-22T12:43:15;97420.89;;;5.35;67.68
23635;BME280;11994;51.038;16.974;2023-12-22T12:45:40;97437.63;;;5.36;66.74
23635;BME280;11994;51.038;16.974;2023-12-22T12:48:06;97439.11;;;5.38;66.76
23635;BME280;11994;51.038;16.974;2023-12-22T12:50:32;97431.96;;;5.39;66.91
23635;BME280;11994;51.038;16.974;2023-12-22T12:52:57;97425.70;;;5.39;66.71
23635;BME280;11994;51.038;16.974;2023-12-22T12:55:23;97433.40;;;5.38;66.00
23635;BME280;11994;51.038;16.974;2023-12-22T12:57:49;97429.25;;;5.34;66.22
23635;BME280;11994;51.038;16.974;2023-12-22T13:00:16;97438.27;;;5.31;66.02